createdAt,value
2023-10-20T00:01:11.017Z,97577.75
2023-10-20T00:03:40.242Z,97583.72
2023-10-20T00:06:10.351Z,97574.38
2023-10-20T00:08:39.372Z,97582.91
2023-10-20T00:11:08.697Z,97568.34
2023-10-20T00:13:37.667Z,97562.38
2023-10-20T00:16:08.428Z,97560.56
2023-10-20T00:18:38.823Z,97558.81
2023-10-20T00:21:07.730Z,97546.00
2023-10-20T00:23:36.714Z,97539.22
2023-10-20T00:26:05.558Z,97543.28
2023-10-20T00:28:34.330Z,97531.44
2023-10-20T00:31:03.815Z,97517.78
2023-10-20T00:33:32.639Z,97525.47
2023-10-20T00:36:02.981Z,97518.72
2023-10-20T00:38:32.895Z,97511.91
2023-10-20T00:41:01.790Z,97523.97
2023-10-20T00:43:38.015Z,97511.91
2023-10-20T00:46:07.875Z,97509.44
2023-10-20T00:48:38.433Z,97498.25
2023-10-20T00:51:09.897Z,97489.72
2023-10-20T00:53:39.860Z,97488.06
2023-10-20T00:56:08.935Z,97491.53
2023-10-20T00:58:39.063Z,97491.38
2023-10-20T01:01:08.351Z,97480.28
2023-10-20T01:03:37.644Z,97487.91
2023-10-20T01:06:07.261Z,97479.28
2023-10-20T01:08:37.624Z,97483.59
2023-10-20T01:11:07.099Z,97481.94
2023-10-20T01:13:35.991Z,97477.66
2023-10-20T01:16:05.747Z,97475.97
2023-10-20T01:18:35.247Z,97463.91
2023-10-20T01:21:04.282Z,97460.59
2023-10-20T01:23:33.534Z,97462.25
2023-10-20T01:26:03.839Z,97456.97
2023-10-20T01:28:32.800Z,97447.53
2023-10-20T01:31:01.576Z,97462.88
2023-10-20T01:33:30.553Z,97464.50
2023-10-20T01:35:59.463Z,97460.13
2023-10-20T01:38:28.471Z,97457.56
2023-10-20T01:40:57.447Z,97468.59
2023-10-20T01:43:27.872Z,97462.56
2023-10-20T01:45:56.722Z,97450.47
2023-10-20T01:48:25.853Z,97442.78
2023-10-20T01:50:54.733Z,97439.31
2023-10-20T01:53:24.123Z,97426.31
2023-10-20T01:55:52.842Z,97430.06
2023-10-20T01:58:22.948Z,97423.47
2023-10-20T02:00:54.027Z,97422.34
2023-10-20T02:03:26.609Z,97412.94
2023-10-20T02:05:55.614Z,97412.84
2023-10-20T02:08:24.593Z,97404.88
2023-10-20T02:10:53.533Z,97405.09
2023-10-20T02:13:22.405Z,97406.38
2023-10-20T02:15:52.757Z,97410.97
2023-10-20T02:18:21.560Z,97413.16
2023-10-20T02:21:05.257Z,97409.09
2023-10-20T02:23:36.129Z,97403.06
2023-10-20T02:26:07.380Z,97401.91
2023-10-20T02:28:36.404Z,97396.34
2023-10-20T02:31:15.341Z,97402.78
2023-10-20T02:33:45.674Z,97398.72
2023-10-20T02:36:19.616Z,97390.88
2023-10-20T02:38:53.452Z,97406.81
2023-10-20T02:41:23.043Z,97391.38
2023-10-20T02:43:51.839Z,97388.44
2023-10-20T02:46:22.172Z,97384.91
2023-10-20T02:48:51.062Z,97374.53
2023-10-20T02:51:19.910Z,97372.03
2023-10-20T02:53:49.220Z,97371.84
2023-10-20T02:56:20.344Z,97374.53
2023-10-20T02:58:49.509Z,97366.78
2023-10-20T03:01:19.616Z,97365.06
2023-10-20T03:03:50.027Z,97356.56
2023-10-20T03:06:20.911Z,97359.91
2023-10-20T03:08:50.242Z,97356.38
2023-10-20T03:11:19.125Z,97360.63
2023-10-20T03:13:48.444Z,97354.53
2023-10-20T03:16:17.325Z,97345.88
2023-10-20T03:18:46.561Z,97347.72
2023-10-20T03:21:16.900Z,97345.97
2023-10-20T03:23:46.021Z,97355.06
2023-10-20T03:26:15.135Z,97359.50
2023-10-20T03:28:45.213Z,97358.78
2023-10-20T03:31:14.165Z,97354.53
2023-10-20T03:33:43.185Z,97354.22
2023-10-20T03:36:13.669Z,97343.97
2023-10-20T03:38:44.995Z,97337.81
2023-10-20T03:41:15.912Z,97330.78
2023-10-20T03:43:47.307Z,97327.31
2023-10-20T03:46:17.564Z,97337.44
2023-10-20T03:48:46.869Z,97329.28
2023-10-20T03:51:15.906Z,97336.09
2023-10-20T03:53:51.959Z,97328.44
2023-10-20T03:56:23.807Z,97328.38
2023-10-20T03:58:53.009Z,97329.19
2023-10-20T04:01:23.214Z,97324.13
2023-10-20T04:03:52.874Z,97333.53
2023-10-20T04:06:23.661Z,97330.00
2023-10-20T04:08:53.977Z,97321.16
2023-10-20T04:11:24.979Z,97326.63
2023-10-20T04:13:54.067Z,97326.91
2023-10-20T04:16:24.994Z,97328.75
2023-10-20T04:18:53.940Z,97339.06
2023-10-20T04:21:23.531Z,97342.34
2023-10-20T04:23:53.828Z,97335.06
2023-10-20T04:26:23.026Z,97342.22
2023-10-20T04:29:06.671Z,97345.63
2023-10-20T04:31:45.442Z,97332.91
2023-10-20T04:34:31.216Z,97329.81
2023-10-20T04:37:10.126Z,97324.13
2023-10-20T04:39:49.584Z,97312.97
2023-10-20T04:42:28.047Z,97322.38
2023-10-20T04:45:21.132Z,97314.94
2023-10-20T04:48:09.655Z,97327.50
2023-10-20T04:51:10.567Z,97317.22
2023-10-20T04:53:50.074Z,97327.66
2023-10-20T04:56:29.344Z,97325.28
2023-10-20T04:59:00.947Z,97316.66
2023-10-20T05:01:31.820Z,97316.22
2023-10-20T05:04:14.501Z,97310.53
2023-10-20T05:06:46.170Z,97315.69
2023-10-20T05:09:19.117Z,97309.84
2023-10-20T05:11:50.855Z,97312.31
2023-10-20T05:14:19.966Z,97305.28
2023-10-20T05:16:48.883Z,97325.00
2023-10-20T05:19:18.189Z,97325.53
2023-10-20T05:21:47.132Z,97321.63
2023-10-20T05:24:16.015Z,97321.81
2023-10-20T05:26:49.246Z,97334.38
2023-10-20T05:29:19.509Z,97304.03
2023-10-20T05:31:48.314Z,97303.84
2023-10-20T05:34:17.337Z,97303.44
2023-10-20T05:36:46.012Z,97292.34
2023-10-20T05:39:16.113Z,97313.19
2023-10-20T05:41:46.120Z,97311.34
2023-10-20T05:44:18.985Z,97303.47
2023-10-20T05:46:47.932Z,97319.47
2023-10-20T05:49:16.730Z,97308.97
2023-10-20T05:51:46.892Z,97306.19
2023-10-20T05:54:16.670Z,97305.88
2023-10-20T05:56:45.516Z,97303.06
2023-10-20T05:59:15.817Z,97298.19
2023-10-20T06:01:44.665Z,97288.59
2023-10-20T06:04:13.573Z,97297.47
2023-10-20T06:06:42.843Z,97299.53
2023-10-20T06:09:11.606Z,97300.13
2023-10-20T06:11:40.527Z,97296.00
2023-10-20T06:14:09.362Z,97296.63
2023-10-20T06:16:40.208Z,97282.38
2023-10-20T06:19:09.186Z,97281.34
2023-10-20T06:21:37.921Z,97290.94
2023-10-20T06:24:07.430Z,97295.97
2023-10-20T06:26:39.492Z,97295.34
2023-10-20T06:29:25.338Z,97300.88
2023-10-20T06:31:59.657Z,97290.00
2023-10-20T06:34:28.639Z,97287.44
2023-10-20T06:37:08.583Z,97288.88
2023-10-20T06:39:38.821Z,97280.19
2023-10-20T06:42:07.842Z,97280.31
2023-10-20T06:44:36.918Z,97266.09
2023-10-20T06:47:07.366Z,97275.78
2023-10-20T06:49:36.009Z,97277.44
2023-10-20T06:52:05.509Z,97270.38
2023-10-20T06:54:34.731Z,97276.78
2023-10-20T06:57:03.684Z,97276.53
2023-10-20T06:59:32.414Z,97279.25
2023-10-20T07:02:02.577Z,97279.78
2023-10-20T07:04:33.427Z,97281.13
2023-10-20T07:07:03.873Z,97281.50
2023-10-20T07:09:32.552Z,97269.75
2023-10-20T07:12:02.611Z,97272.03
2023-10-20T07:14:32.981Z,97275.78
2023-10-20T07:17:04.911Z,97267.34
2023-10-20T07:19:36.187Z,97272.88
2023-10-20T07:22:05.478Z,97272.06
2023-10-20T07:24:35.291Z,97263.66
2023-10-20T07:27:04.766Z,97264.03
2023-10-20T07:29:34.333Z,97263.00
2023-10-20T07:32:05.498Z,97265.56
2023-10-20T07:34:37.226Z,97260.88
2023-10-20T07:37:08.278Z,97255.72
2023-10-20T07:39:37.207Z,97259.34
2023-10-20T07:42:06.319Z,97243.22
2023-10-20T07:44:35.395Z,97252.44
2023-10-20T07:47:04.367Z,97243.84
2023-10-20T07:49:33.266Z,97251.56
2023-10-20T07:52:04.665Z,97246.88
2023-10-20T07:54:33.755Z,97236.53
2023-10-20T07:57:02.637Z,97232.91
2023-10-20T07:59:31.512Z,97228.28
2023-10-20T08:02:00.497Z,97240.91
2023-10-20T08:04:29.800Z,97253.22
2023-10-20T08:07:01.624Z,97254.19
2023-10-20T08:09:35.569Z,97255.47
2023-10-20T08:12:05.231Z,97254.41
2023-10-20T08:14:35.398Z,97254.66
2023-10-20T08:17:09.074Z,97235.81
2023-10-20T08:19:38.266Z,97236.28
2023-10-20T08:22:06.887Z,97244.75
2023-10-20T08:24:37.330Z,97245.34
2023-10-20T08:27:06.176Z,97241.00
2023-10-20T08:29:35.210Z,97235.81
2023-10-20T08:32:05.124Z,97236.53
2023-10-20T08:34:34.177Z,97238.84
2023-10-20T08:37:04.144Z,97227.78
2023-10-20T08:39:33.424Z,97233.94
2023-10-20T08:42:04.238Z,97233.94
2023-10-20T08:44:33.426Z,97240.75
2023-10-20T08:47:02.550Z,97242.53
2023-10-20T08:49:31.772Z,97238.41
2023-10-20T08:52:05.765Z,97238.38
2023-10-20T08:54:34.879Z,97249.59
2023-10-20T08:57:05.172Z,97232.47
2023-10-20T08:59:37.763Z,97240.34
2023-10-20T09:02:08.525Z,97233.13
2023-10-20T09:04:38.756Z,97231.88
2023-10-20T09:07:15.313Z,97232.44
2023-10-20T09:09:44.401Z,97233.06
2023-10-20T09:12:14.962Z,97231.22
2023-10-20T09:14:43.821Z,97217.81
2023-10-20T09:17:23.648Z,97221.78
2023-10-20T09:19:52.688Z,97218.78
2023-10-20T09:22:30.540Z,97215.13
2023-10-20T09:24:59.517Z,97216.19
2023-10-20T09:27:29.705Z,97212.06
2023-10-20T09:29:59.680Z,97199.72
2023-10-20T09:32:29.039Z,97203.63
2023-10-20T09:34:59.072Z,97198.03
2023-10-20T09:37:31.708Z,97188.34
2023-10-20T09:40:08.335Z,97181.97
2023-10-20T09:42:51.118Z,97193.03
2023-10-20T09:45:26.433Z,97180.44
2023-10-20T09:47:59.372Z,97193.78
2023-10-20T09:50:33.278Z,97190.84
2023-10-20T09:53:02.896Z,97168.78
2023-10-20T09:55:32.473Z,97164.16
2023-10-20T09:58:03.415Z,97171.06
2023-10-20T10:00:34.218Z,97168.09
2023-10-20T10:03:03.940Z,97171.78
2023-10-20T10:05:32.929Z,97164.16
2023-10-20T10:08:09.604Z,97155.81
2023-10-20T10:10:38.935Z,97152.69
2023-10-20T10:13:09.924Z,97142.84
2023-10-20T10:15:43.285Z,97137.41
2023-10-20T10:18:15.101Z,97151.88
2023-10-20T10:20:47.263Z,97148.56
2023-10-20T10:23:17.484Z,97138.75
2023-10-20T10:25:48.749Z,97133.41
2023-10-20T10:28:20.659Z,97130.81
2023-10-20T10:30:53.804Z,97121.44
2023-10-20T10:33:24.152Z,97125.75
2023-10-20T10:36:06.238Z,97132.78
2023-10-20T10:38:44.259Z,97136.09
2023-10-20T10:41:13.429Z,97125.06
2023-10-20T10:43:43.741Z,97116.50
2023-10-20T10:46:13.093Z,97134.56
2023-10-20T10:48:41.823Z,97120.34
2023-10-20T10:51:10.662Z,97122.06
2023-10-20T10:53:41.921Z,97119.66
2023-10-20T10:56:11.892Z,97099.63
2023-10-20T10:58:42.998Z,97114.78
2023-10-20T11:01:11.968Z,97108.19
2023-10-20T11:03:41.197Z,97106.19
2023-10-20T11:06:10.529Z,97109.63
2023-10-20T11:08:41.687Z,97119.81
2023-10-20T11:11:12.246Z,97120.19
2023-10-20T11:13:43.804Z,97123.06
2023-10-20T11:16:16.172Z,97127.34
2023-10-20T11:18:48.043Z,97115.03
2023-10-20T11:21:17.396Z,97119.19
2023-10-20T11:23:51.957Z,97138.66
2023-10-20T11:26:22.616Z,97130.47
2023-10-20T11:28:53.161Z,97107.16
2023-10-20T11:31:22.291Z,97123.63
2023-10-20T11:33:51.106Z,97108.50
2023-10-20T11:36:20.042Z,97108.50
2023-10-20T11:38:48.786Z,97121.41
2023-10-20T11:41:17.793Z,97120.56
2023-10-20T11:43:46.701Z,97119.97
2023-10-20T11:46:16.961Z,97127.59
2023-10-20T11:48:46.441Z,97117.00
2023-10-20T11:51:15.526Z,97120.25
2023-10-20T11:53:44.445Z,97124.53
2023-10-20T11:56:13.265Z,97131.16
2023-10-20T11:58:42.100Z,97117.66
2023-10-20T12:01:11.001Z,97137.66
2023-10-20T12:03:41.811Z,97134.63
2023-10-20T12:06:10.751Z,97127.81
2023-10-20T12:08:39.617Z,97128.28
2023-10-20T12:11:08.462Z,97129.53
2023-10-20T12:13:38.297Z,97135.59
2023-10-20T12:16:09.808Z,97128.22
2023-10-20T12:18:38.729Z,97116.22
2023-10-20T12:21:09.509Z,97119.16
2023-10-20T12:23:39.162Z,97100.91
2023-10-20T12:26:08.138Z,97112.97
2023-10-20T12:28:36.993Z,97096.69
2023-10-20T12:31:05.905Z,97106.00
2023-10-20T12:33:34.969Z,97103.22
2023-10-20T12:36:03.900Z,97099.00
2023-10-20T12:38:34.391Z,97102.50
2023-10-20T12:41:04.269Z,97089.28
2023-10-20T12:43:33.142Z,97097.94
2023-10-20T12:46:04.070Z,97097.84
2023-10-20T12:48:33.673Z,97094.19
2023-10-20T12:51:08.578Z,97099.63
2023-10-20T12:53:39.021Z,97087.78
2023-10-20T12:56:08.622Z,97107.75
2023-10-20T12:58:37.915Z,97106.19
2023-10-20T13:01:08.075Z,97110.31
2023-10-20T13:03:38.025Z,97130.13
2023-10-20T13:06:08.209Z,97135.63
2023-10-20T13:08:39.012Z,97130.00
2023-10-20T13:11:08.018Z,97129.66
2023-10-20T13:13:36.848Z,97115.94
2023-10-20T13:16:07.887Z,97117.88
2023-10-20T13:18:37.163Z,97134.75
2023-10-20T13:21:06.657Z,97126.56
2023-10-20T13:23:36.207Z,97125.91
2023-10-20T13:26:07.238Z,97125.22
2023-10-20T13:28:36.681Z,97117.97
2023-10-20T13:31:09.132Z,97118.56
2023-10-20T13:33:39.221Z,97120.63
2023-10-20T13:36:10.127Z,97117.19
2023-10-20T13:38:39.414Z,97114.91
2023-10-20T13:41:09.616Z,97117.50
2023-10-20T13:43:38.368Z,97115.84
2023-10-20T13:46:07.191Z,97112.28
2023-10-20T13:48:36.350Z,97118.59
2023-10-20T13:51:05.507Z,97121.34
2023-10-20T13:53:37.548Z,97121.34
2023-10-20T13:56:06.561Z,97116.28
2023-10-20T13:58:36.790Z,97112.56
2023-10-20T14:01:05.793Z,97108.63
2023-10-20T14:03:34.825Z,97109.84
2023-10-20T14:06:06.521Z,97116.72
2023-10-20T14:08:35.422Z,97109.56
2023-10-20T14:11:05.968Z,97129.84
2023-10-20T14:13:36.531Z,97125.97
2023-10-20T14:16:06.090Z,97116.09
2023-10-20T14:18:35.257Z,97120.63
2023-10-20T14:21:04.316Z,97121.59
2023-10-20T14:23:33.613Z,97115.84
2023-10-20T14:26:02.482Z,97130.41
2023-10-20T14:28:34.496Z,97130.97
2023-10-20T14:31:05.583Z,97123.84
2023-10-20T14:33:35.649Z,97133.44
2023-10-20T14:36:04.872Z,97136.47
2023-10-20T14:38:33.748Z,97131.38
2023-10-20T14:41:04.480Z,97141.13
2023-10-20T14:43:34.183Z,97138.94
2023-10-20T14:46:05.487Z,97132.66
2023-10-20T14:48:35.012Z,97138.69
2023-10-20T14:51:07.888Z,97131.72
2023-10-20T14:53:37.374Z,97134.31
2023-10-20T14:56:07.483Z,97131.28
2023-10-20T14:58:36.506Z,97136.50
2023-10-20T15:01:10.122Z,97132.13
2023-10-20T15:03:39.072Z,97131.69
2023-10-20T15:06:08.600Z,97131.53
2023-10-20T15:08:37.645Z,97131.03
2023-10-20T15:11:09.921Z,97135.25
2023-10-20T15:13:38.969Z,97135.78
2023-10-20T15:16:11.135Z,97138.53
2023-10-20T15:18:40.206Z,97138.41
2023-10-20T15:21:09.305Z,97136.72
2023-10-20T15:23:38.290Z,97137.69
2023-10-20T15:26:07.818Z,97130.16
2023-10-20T15:28:37.294Z,97136.97
2023-10-20T15:31:10.883Z,97138.22
2023-10-20T15:33:40.689Z,97129.97
2023-10-20T15:36:09.938Z,97125.59
2023-10-20T15:38:39.343Z,97124.91
2023-10-20T15:41:08.334Z,97125.75
2023-10-20T15:43:37.065Z,97116.13
2023-10-20T15:46:10.807Z,97118.88
2023-10-20T15:48:40.730Z,97114.78
2023-10-20T15:51:10.258Z,97125.19
2023-10-20T15:53:38.950Z,97112.59
2023-10-20T15:56:08.273Z,97108.47
2023-10-20T15:58:38.491Z,97105.81
2023-10-20T16:01:07.494Z,97106.50
2023-10-20T16:03:38.067Z,97102.94
2023-10-20T16:06:12.362Z,97102.66
2023-10-20T16:08:41.344Z,97108.53
2023-10-20T16:11:10.181Z,97109.50
2023-10-20T16:13:39.182Z,97099.06
2023-10-20T16:16:08.170Z,97094.97
2023-10-20T16:18:38.676Z,97096.75
2023-10-20T16:21:08.060Z,97092.09
2023-10-20T16:23:37.113Z,97091.09
2023-10-20T16:26:05.972Z,97091.94
2023-10-20T16:28:34.887Z,97099.63
2023-10-20T16:31:05.345Z,97098.50
2023-10-20T16:33:36.227Z,97090.69
2023-10-20T16:36:07.513Z,97106.69
2023-10-20T16:38:36.489Z,97102.97
2023-10-20T16:41:05.665Z,97103.13
2023-10-20T16:43:34.575Z,97109.97
2023-10-20T16:46:06.812Z,97121.97
2023-10-20T16:48:36.088Z,97117.59
2023-10-20T16:51:06.432Z,97120.56
2023-10-20T16:53:36.587Z,97124.91
2023-10-20T16:56:06.562Z,97122.97
2023-10-20T16:58:36.550Z,97138.97
2023-10-20T17:01:06.325Z,97136.91
2023-10-20T17:03:36.393Z,97127.34
2023-10-20T17:06:08.201Z,97143.34
2023-10-20T17:08:37.255Z,97133.78
2023-10-20T17:11:06.488Z,97147.69
2023-10-20T17:13:35.108Z,97148.25
2023-10-20T17:16:07.378Z,97139.03
2023-10-20T17:18:36.527Z,97138.53
2023-10-20T17:21:08.770Z,97138.53
2023-10-20T17:23:37.962Z,97141.81
2023-10-20T17:26:08.349Z,97129.75
2023-10-20T17:28:37.934Z,97134.41
2023-10-20T17:31:07.096Z,97129.41
2023-10-20T17:33:36.048Z,97140.81
2023-10-20T17:36:08.574Z,97145.97
2023-10-20T17:38:37.583Z,97136.44
2023-10-20T17:41:06.886Z,97144.47
2023-10-20T17:43:37.539Z,97136.13
2023-10-20T17:46:06.933Z,97138.53
2023-10-20T17:51:05.029Z,97159.59
2023-10-20T17:53:35.486Z,97153.72
2023-10-20T17:56:04.876Z,97148.78
2023-10-20T17:58:33.703Z,97144.69
2023-10-20T18:01:09.106Z,97150.16
2023-10-20T18:03:41.273Z,97147.03
2023-10-20T18:06:11.697Z,97154.84
2023-10-20T18:08:43.593Z,97168.31
2023-10-20T18:11:14.649Z,97166.16
2023-10-20T18:13:44.486Z,97156.84
2023-10-20T18:16:16.265Z,97161.41
2023-10-20T18:18:49.598Z,97158.78
2023-10-20T18:21:20.620Z,97168.69
2023-10-20T18:23:52.179Z,97178.59
2023-10-20T18:26:21.564Z,97170.31
2023-10-20T18:28:50.335Z,97174.22
2023-10-20T18:31:19.984Z,97180.16
2023-10-20T18:33:48.878Z,97192.88
2023-10-20T18:36:17.852Z,97170.38
2023-10-20T18:38:46.666Z,97178.22
2023-10-20T18:41:17.385Z,97197.72
2023-10-20T18:43:46.430Z,97197.31
2023-10-20T18:46:15.337Z,97211.06
2023-10-20T18:48:44.309Z,97204.91
2023-10-20T18:51:14.601Z,97205.78
2023-10-20T18:53:43.843Z,97202.09
2023-10-20T18:56:12.609Z,97201.72
2023-10-20T18:58:45.528Z,97199.69
2023-10-20T19:01:16.191Z,97209.56
2023-10-20T19:03:45.475Z,97205.44
2023-10-20T19:06:14.562Z,97209.81
2023-10-20T19:08:43.713Z,97205.03
2023-10-20T19:11:12.950Z,97200.81
2023-10-20T19:13:43.177Z,97206.13
2023-10-20T19:16:12.986Z,97214.22
2023-10-20T19:18:41.959Z,97217.38
2023-10-20T19:21:12.468Z,97219.44
2023-10-20T19:23:42.187Z,97225.22
2023-10-20T19:26:12.737Z,97236.59
2023-10-20T19:28:43.723Z,97234.28
2023-10-20T19:31:12.875Z,97247.41
2023-10-20T19:33:42.091Z,97238.91
2023-10-20T19:36:11.803Z,97251.38
2023-10-20T19:38:40.811Z,97234.81
2023-10-20T19:41:13.014Z,97258.38
2023-10-20T19:43:43.630Z,97256.72
2023-10-20T19:46:15.149Z,97261.81
2023-10-20T19:48:44.424Z,97269.75
2023-10-20T19:51:13.845Z,97268.94
2023-10-20T19:53:42.880Z,97293.44
2023-10-20T19:56:11.701Z,97280.66
2023-10-20T19:58:42.409Z,97297.19
2023-10-20T20:01:12.884Z,97294.97
2023-10-20T20:03:41.863Z,97304.81
2023-10-20T20:06:11.400Z,97307.78
2023-10-20T20:08:40.360Z,97300.03
2023-10-20T20:11:09.146Z,97294.03
2023-10-20T20:13:39.960Z,97292.47
2023-10-20T20:16:11.556Z,97286.81
2023-10-20T20:18:42.353Z,97293.38
2023-10-20T20:21:12.824Z,97302.16
2023-10-20T20:23:41.776Z,97304.09
2023-10-20T20:26:10.591Z,97298.09
2023-10-20T20:28:41.720Z,97302.56
2023-10-20T20:31:11.491Z,97301.78
2023-10-20T20:33:41.802Z,97302.66
2023-10-20T20:36:10.948Z,97325.13
2023-10-20T20:38:39.720Z,97315.00
2023-10-20T20:41:08.904Z,97324.59
2023-10-20T20:43:37.594Z,97324.72
2023-10-20T20:46:06.694Z,97320.75
2023-10-20T20:48:35.638Z,97336.22
2023-10-20T20:51:11.070Z,97334.72
2023-10-20T20:53:40.088Z,97334.19
2023-10-20T20:56:08.873Z,97339.56
2023-10-20T20:58:37.604Z,97342.84
2023-10-20T21:01:10.545Z,97348.06
2023-10-20T21:03:44.450Z,97357.53
2023-10-20T21:06:15.214Z,97364.94
2023-10-20T21:08:44.057Z,97375.53
2023-10-20T21:11:14.402Z,97369.38
2023-10-20T21:13:44.354Z,97362.94
2023-10-20T21:16:13.353Z,97372.94
2023-10-20T21:18:42.384Z,97370.50
2023-10-20T21:21:15.049Z,97376.78
2023-10-20T21:23:47.633Z,97374.56
2023-10-20T21:26:16.705Z,97373.06
2023-10-20T21:28:45.430Z,97379.22
2023-10-20T21:31:14.546Z,97379.47
2023-10-20T21:33:43.402Z,97377.03
2023-10-20T21:36:16.671Z,97378.66
2023-10-20T21:38:46.905Z,97373.06
2023-10-20T21:41:15.678Z,97369.06
2023-10-20T21:43:44.462Z,97378.09
2023-10-20T21:46:14.766Z,97374.81
2023-10-20T21:48:43.687Z,97378.09
2023-10-20T21:51:12.998Z,97377.44
2023-10-20T21:53:41.900Z,97378.63
2023-10-20T21:56:12.602Z,97389.75
2023-10-20T21:58:41.552Z,97384.97
2023-10-20T22:01:11.541Z,97391.00
2023-10-20T22:03:40.919Z,97377.88
2023-10-20T22:06:10.566Z,97385.81
2023-10-20T22:08:39.523Z,97376.91
2023-10-20T22:11:08.329Z,97383.59
2023-10-20T22:13:38.731Z,97385.25
2023-10-20T22:16:08.422Z,97381.53
2023-10-20T22:18:37.452Z,97384.13
2023-10-20T22:21:06.370Z,97382.47
2023-10-20T22:23:35.329Z,97388.09
2023-10-20T22:26:04.062Z,97392.06
2023-10-20T22:28:32.975Z,97389.75
2023-10-20T22:31:03.235Z,97392.06
2023-10-20T22:33:32.217Z,97395.38
2023-10-20T22:36:01.306Z,97386.84
2023-10-20T22:38:30.346Z,97393.72
2023-10-20T22:40:59.134Z,97391.94
2023-10-20T22:43:28.008Z,97390.28
2023-10-20T22:45:56.863Z,97394.00
2023-10-20T22:48:27.274Z,97404.41
2023-10-20T22:50:56.407Z,97401.69
2023-10-20T22:53:25.231Z,97396.31
2023-10-20T22:55:54.515Z,97395.06
2023-10-20T22:58:23.316Z,97406.47
2023-10-20T23:00:52.228Z,97399.75
2023-10-20T23:03:21.185Z,97404.53
2023-10-20T23:05:52.009Z,97403.03
2023-10-20T23:08:20.920Z,97403.19
2023-10-20T23:10:49.767Z,97396.19
2023-10-20T23:13:19.134Z,97407.44
2023-10-20T23:15:48.097Z,97403.03
2023-10-20T23:18:17.038Z,97402.78
2023-10-20T23:20:46.011Z,97411.41
2023-10-20T23:23:16.328Z,97427.75
2023-10-20T23:25:45.258Z,97425.94
2023-10-20T23:28:14.217Z,97439.97
2023-10-20T23:30:43.026Z,97431.59
2023-10-20T23:33:12.052Z,97434.09
2023-10-20T23:35:41.467Z,97430.09
2023-10-20T23:38:10.387Z,97437.63
2023-10-20T23:40:40.594Z,97431.06
2023-10-20T23:43:10.568Z,97428.56
2023-10-20T23:45:39.386Z,97431.31
2023-10-20T23:48:08.937Z,97436.66
2023-10-20T23:50:37.882Z,97437.34
2023-10-20T23:53:06.657Z,97446.78
2023-10-20T23:55:35.921Z,97442.31
2023-10-20T23:58:06.568Z,97453.66
